McFarland, CA (93250)

3:32 AM PST on February 08, 2016 (GMT -0800)
McFarland | | Change Station
CLOSE
Current Station
Personal Weather Station
Location: McFarland, CA
Elevation: 342 ft
Nearby Weather Stations

Elev 342 ft 35.69 °N, 119.23 °W | Updated 9 seconds ago

Clear
Clear
42.3 °F
Feels Like 42 °F
N
0.0
Wind Variable Wind from NNE

Today
High -- | Low -- °F
--% Chance of Precip.
Yesterday
High -- | Low -- °F
Precip. -- in
Pressure 30.22 in
Visibility 3.0 miles
Clouds Clear
Windchill 42 °F
Dew Point 42 °F
Humidity 99%
Rainfall 0.00 in
Snow Depth Not available.
6:51 AM 5:31 PM
Waning Crescent, 0% visible
METAR KBFL 081054Z AUTO 00000KT 3SM BR CLR 08/06 A3022 RMK AO2 SLP232 T00830061
Pressure 30.22 in
Visibility 3.0 miles
Clouds Clear
Windchill 42 °F
Dew Point 42 °F
Humidity 99%
Rainfall 0.00 in
Snow Depth Not available.
6:51 AM 5:31 PM
Waning Crescent, 0% visible
METAR KBFL 081054Z AUTO 00000KT 3SM BR CLR 08/06 A3022 RMK AO2 SLP232 T00830061

10-Day Weather Forecast

Almanac

Astronomy

Feb. 08, 2016 Rise Set
Actual Time
Civil Twilight
Nautical Twilight
Astronomical Twilight
Moon
Length of Visible Light
Length of Day
Tomorrow will be .
, % of the Moon is Illuminated

Today's Extremes

State Highs State Lows

Community

WunderPhotos

Upload Photos

1,891,420 photos uploaded!

WunderBlog® & News

Nearby

Air Quality

  Air Quality AQ Index Pollutant
Not available.

Snow Depth

Station Depth Elevation

Earthquake Activity

City Distance Mag. Time & Date
Minimum magnitude displayed is 2.5.

Coastal Water Temperatures

Place Temperature

Stations

Nearby Weather Stations

Station Location Temp. Windchill Dew Point Humidity Wind Precip. Elev Updated Type
                   

Watches & Warnings

There are currently no watches in effect.